Nordic Bothnia — 3EVU9 — position and weather

sailwx.info

Track history (hours):
 
Tides and Currents Weather Stations Pressure Air Temp Water Temp Dewpoint Dewpoint Depression Visibility Wind Speed Wind Dir Waves Ship Positions

Nordic Bothnia

Last reported at 2017-Dec-04 10:30 UTC. Time now 2017-Dec-18 03:06 UTC.
Position N 71°13' E 029°47'.
Warning: this ship's position is 13 days out of date.

Length 189 m; draft 7.6 m.

Type: Cargo ship. MMSI: 352212000.

Date/timePositionNaut miles runAvg speedWind from/ knotsBaromVisibWave heightAir tempDewpointWater temp
2017-Dec-04 10:30N 71°13' E 029°47'713.8
2017-Dec-04 10:00N 71°17' E 029°31'612.4
2017-Dec-04 09:30N 71°21' E 029°14'  
2017-Nov-29 05:23N 55°56' W 006°59'410.0
2017-Nov-29 05:00N 55°53' W 006°55'5 9.7
2017-Nov-29 04:30N 55°49' W 006°50'5 9.2
2017-Nov-29 03:59N 55°45' W 006°46'4 8.9
2017-Nov-29 03:30N 55°41' W 006°43'4 8.4
2017-Nov-29 03:00N 55°38' W 006°38'5 9.6
2017-Nov-29 02:30N 55°35' W 006°31'5 9.9
2017-Nov-29 02:00N 55°31' W 006°25'510.4
2017-Nov-29 01:30N 55°28' W 006°18'511.0
2017-Nov-29 01:01N 55°25' W 006°09'611.1
2017-Nov-29 00:31N 55°23' W 006°01'712.5
2017-Nov-28 23:59N 55°17' W 005°54'2513.4
2017-Nov-28 22:09N 54°57' W 005°30'214.0
2017-Nov-28 22:00N 54°55' W 005°28'713.4
2017-Nov-28 21:30N 54°50' W 005°22'612.8
2017-Nov-28 21:00N 54°45' W 005°16'713.1
2017-Nov-28 20:30N 54°39' W 005°09'612.0
2017-Nov-28 20:00N 54°33' W 005°08'612.5
2017-Nov-28 19:30N 54°27' W 005°08'612.2
2017-Nov-28 19:00N 54°21' W 005°08'612.1
2017-Nov-28 18:30N 54°15' W 005°08'  
2017-Nov-25 15:58N 39°35' W 009°51'911.7
2017-Nov-25 15:10N 39°25' W 009°51'211.8
2017-Nov-25 15:00N 39°23' W 009°51'611.7
2017-Nov-25 14:30N 39°17' W 009°51'612.0
2017-Nov-25 14:00N 39°11' W 009°51'612.4
2017-Nov-25 13:30N 39°05' W 009°51'612.1
2017-Nov-25 13:00N 38°59' W 009°51'612.4
2017-Nov-25 12:30N 38°53' W 009°51'612.3
2017-Nov-25 12:00N 38°47' W 009°51'612.2
2017-Nov-25 11:30N 38°41' W 009°50'612.1
2017-Nov-25 11:00N 38°35' W 009°49'612.5
2017-Nov-25 10:30N 38°29' W 009°47'612.7
2017-Nov-25 10:00N 38°23' W 009°45'612.6
2017-Nov-25 09:30N 38°16' W 009°43'612.5
2017-Nov-25 09:00N 38°10' W 009°41'612.2
2017-Nov-25 08:30N 38°05' W 009°39'611.9
2017-Nov-25 08:00N 37°59' W 009°37'612.2
2017-Nov-25 07:30N 37°53' W 009°36'1012.3
2017-Nov-25 06:44N 37°43' W 009°33'412.6
2017-Nov-25 06:24N 37°39' W 009°32'4012.3
2017-Nov-25 03:10N 37°01' W 009°21'2711.4
2017-Nov-25 00:48N 36°42' W 008°57'512.8
2017-Nov-25 00:26N 36°41' W 008°51'612.7
2017-Nov-24 23:59N 36°39' W 008°44'812.8
2017-Nov-24 23:21N 36°36' W 008°35'712.7
2017-Nov-24 22:50N 36°34' W 008°27'412.8
2017-Nov-24 22:30N 36°32' W 008°22'812.6
2017-Nov-24 21:53N 36°30' W 008°13'512.3
2017-Nov-24 21:29N 36°28' W 008°07'712.2
2017-Nov-24 20:57N 36°26' W 007°59'612.2
2017-Nov-24 20:28N 36°25' W 007°52'612.6
2017-Nov-24 19:57N 36°23' W 007°45'612.5
2017-Nov-24 19:30N 36°21' W 007°38'712.4
2017-Nov-24 18:57N 36°19' W 007°30'512.1
2017-Nov-24 18:30N 36°17' W 007°24'812.1
2017-Nov-24 17:53N 36°15' W 007°15'712.4
2017-Nov-24 17:18N 36°13' W 007°06'512.4
2017-Nov-24 16:54N 36°11' W 007°00'512.3
2017-Nov-24 16:28N 36°09' W 006°54'612.3
2017-Nov-24 16:00N 36°07' W 006°48'612.5
2017-Nov-24 15:30N 36°05' W 006°40'612.8
2017-Nov-24 15:00N 36°03' W 006°33'612.7
2017-Nov-24 14:30N 36°01' W 006°25'612.9
2017-Nov-24 14:00N 35°59' W 006°18'612.9
2017-Nov-24 13:30N 35°58' W 006°10'3212.4
2017-Nov-24 10:54N 35°59' W 005°30'  
Track history (hours):
 
Tides and Currents Weather Stations Pressure Air Temp Water Temp Dewpoint Dewpoint Depression Visibility Wind Speed Wind Dir Waves Ship Positions

Nordic Bothnia

Last reported at 2017-Dec-04 10:30 UTC. Time now 2017-Dec-18 03:06 UTC.
Position N 71°13' E 029°47'.
Warning: this ship's position is 13 days out of date.

Length 189 m; draft 7.6 m.

Type: Cargo ship. MMSI: 352212000.

Date/timePositionNaut miles runAvg speedWind from/ knotsBaromVisibWave heightAir tempDewpointWater temp
2017-Dec-04 10:30N 71°13' E 029°47'713.8
2017-Dec-04 10:00N 71°17' E 029°31'612.4
2017-Dec-04 09:30N 71°21' E 029°14'  
2017-Nov-29 05:23N 55°56' W 006°59'410.0
2017-Nov-29 05:00N 55°53' W 006°55'5 9.7
2017-Nov-29 04:30N 55°49' W 006°50'5 9.2
2017-Nov-29 03:59N 55°45' W 006°46'4 8.9
2017-Nov-29 03:30N 55°41' W 006°43'4 8.4
2017-Nov-29 03:00N 55°38' W 006°38'5 9.6
2017-Nov-29 02:30N 55°35' W 006°31'5 9.9
2017-Nov-29 02:00N 55°31' W 006°25'510.4
2017-Nov-29 01:30N 55°28' W 006°18'511.0
2017-Nov-29 01:01N 55°25' W 006°09'611.1
2017-Nov-29 00:31N 55°23' W 006°01'712.5
2017-Nov-28 23:59N 55°17' W 005°54'2513.4
2017-Nov-28 22:09N 54°57' W 005°30'214.0
2017-Nov-28 22:00N 54°55' W 005°28'713.4
2017-Nov-28 21:30N 54°50' W 005°22'612.8
2017-Nov-28 21:00N 54°45' W 005°16'713.1
2017-Nov-28 20:30N 54°39' W 005°09'612.0
2017-Nov-28 20:00N 54°33' W 005°08'612.5
2017-Nov-28 19:30N 54°27' W 005°08'612.2
2017-Nov-28 19:00N 54°21' W 005°08'612.1
2017-Nov-28 18:30N 54°15' W 005°08'  
2017-Nov-25 15:58N 39°35' W 009°51'911.7
2017-Nov-25 15:10N 39°25' W 009°51'211.8
2017-Nov-25 15:00N 39°23' W 009°51'611.7
2017-Nov-25 14:30N 39°17' W 009°51'612.0
2017-Nov-25 14:00N 39°11' W 009°51'612.4
2017-Nov-25 13:30N 39°05' W 009°51'612.1
2017-Nov-25 13:00N 38°59' W 009°51'612.4
2017-Nov-25 12:30N 38°53' W 009°51'612.3
2017-Nov-25 12:00N 38°47' W 009°51'612.2
2017-Nov-25 11:30N 38°41' W 009°50'612.1
2017-Nov-25 11:00N 38°35' W 009°49'612.5
2017-Nov-25 10:30N 38°29' W 009°47'612.7
2017-Nov-25 10:00N 38°23' W 009°45'612.6
2017-Nov-25 09:30N 38°16' W 009°43'612.5
2017-Nov-25 09:00N 38°10' W 009°41'612.2
2017-Nov-25 08:30N 38°05' W 009°39'611.9
2017-Nov-25 08:00N 37°59' W 009°37'612.2
2017-Nov-25 07:30N 37°53' W 009°36'1012.3
2017-Nov-25 06:44N 37°43' W 009°33'412.6
2017-Nov-25 06:24N 37°39' W 009°32'4012.3
2017-Nov-25 03:10N 37°01' W 009°21'2711.4
2017-Nov-25 00:48N 36°42' W 008°57'512.8
2017-Nov-25 00:26N 36°41' W 008°51'612.7
2017-Nov-24 23:59N 36°39' W 008°44'812.8
2017-Nov-24 23:21N 36°36' W 008°35'712.7
2017-Nov-24 22:50N 36°34' W 008°27'412.8
2017-Nov-24 22:30N 36°32' W 008°22'812.6
2017-Nov-24 21:53N 36°30' W 008°13'512.3
2017-Nov-24 21:29N 36°28' W 008°07'712.2
2017-Nov-24 20:57N 36°26' W 007°59'612.2
2017-Nov-24 20:28N 36°25' W 007°52'612.6
2017-Nov-24 19:57N 36°23' W 007°45'612.5
2017-Nov-24 19:30N 36°21' W 007°38'712.4
2017-Nov-24 18:57N 36°19' W 007°30'512.1
2017-Nov-24 18:30N 36°17' W 007°24'812.1
2017-Nov-24 17:53N 36°15' W 007°15'712.4
2017-Nov-24 17:18N 36°13' W 007°06'512.4
2017-Nov-24 16:54N 36°11' W 007°00'512.3
2017-Nov-24 16:28N 36°09' W 006°54'612.3
2017-Nov-24 16:00N 36°07' W 006°48'612.5
2017-Nov-24 15:30N 36°05' W 006°40'612.8
2017-Nov-24 15:00N 36°03' W 006°33'612.7
2017-Nov-24 14:30N 36°01' W 006°25'612.9
2017-Nov-24 14:00N 35°59' W 006°18'612.9
2017-Nov-24 13:30N 35°58' W 006°10'3212.4
2017-Nov-24 10:54N 35°59' W 005°30'  

Dump ship's entire track history